Time;durP1;ratioP1;P1;durP2;ratioP2;P2;SDS_P1;SDS_P2;PMS_P1;PMS_P2;Temp;Humidity;BMP_temperature;BMP_pressure;BME280_temperature;BME280_humidity;BME280_pressure;Samples;Min_cycle;Max_cycle;Signal;HPM_P1;HPM_P2
2021/09/15 00:01:57;;;;;;;8.63;7.93;;;22.80;79.60;;;;;;5094877;28;20456;-71
2021/09/15 00:04:23;;;;;;;9.37;8.57;;;22.80;79.80;;;;;;5094883;28;20510;-71
2021/09/15 00:06:50;;;;;;;8.37;7.60;;;22.80;80.10;;;;;;5094853;28;20448;-71
2021/09/15 00:09:18;;;;;;;8.83;7.77;;;22.80;80.40;;;;;;5094689;28;20467;-71
2021/09/15 00:11:45;;;;;;;9.27;8.40;;;22.80;80.60;;;;;;5094670;28;20458;-71
2021/09/15 00:14:12;;;;;;;8.87;7.80;;;22.80;80.70;;;;;;5094622;28;20514;-71
2021/09/15 00:16:39;;;;;;;8.67;7.80;;;22.70;80.80;;;;;;5094308;28;20928;-71
2021/09/15 00:19:05;;;;;;;9.60;8.80;;;22.70;80.80;;;;;;5094515;28;20486;-71
2021/09/15 00:21:32;;;;;;;9.03;8.10;;;22.70;81.00;;;;;;5094536;28;20447;-71
2021/09/15 00:23:59;;;;;;;10.87;9.80;;;22.70;81.00;;;;;;5094467;28;20443;-71
2021/09/15 00:26:27;;;;;;;9.37;8.07;;;22.70;81.10;;;;;;5094455;28;20424;-71
2021/09/15 00:28:54;;;;;;;9.77;8.67;;;22.70;81.40;;;;;;5094375;28;20464;-71
2021/09/15 00:31:20;;;;;;;8.87;7.90;;;22.60;81.60;;;;;;5094376;28;20448;-72
2021/09/15 00:33:47;;;;;;;9.20;8.40;;;22.60;81.80;;;;;;5093886;28;20475;-71
2021/09/15 00:36:14;;;;;;;10.00;9.00;;;22.60;82.10;;;;;;5094237;28;20444;-71
2021/09/15 00:38:41;;;;;;;9.50;8.73;;;22.50;82.20;;;;;;5093943;28;20480;-71
2021/09/15 00:41:07;;;;;;;10.33;9.43;;;22.60;82.50;;;;;;5094262;28;20428;-71
2021/09/15 00:43:56;;;;;;;9.07;8.10;;;22.50;82.50;;;;;;5093866;28;20945;-71
2021/09/15 00:46:22;;;;;;;9.63;8.73;;;22.50;82.70;;;;;;5094959;28;20785;-71
2021/09/15 00:48:49;;;;;;;10.97;9.50;;;22.50;82.80;;;;;;5094244;28;20808;-71
2021/09/15 00:51:16;;;;;;;8.83;8.13;;;22.50;83.00;;;;;;5093982;28;20454;-71
2021/09/15 00:53:43;;;;;;;9.57;8.67;;;22.50;83.40;;;;;;5093911;28;20479;-71
2021/09/15 00:56:10;;;;;;;8.53;7.93;;;22.50;83.50;;;;;;5093648;28;20955;-71
2021/09/15 00:58:38;;;;;;;10.60;9.60;;;22.50;83.60;;;;;;5093638;28;20439;-71
2021/09/15 01:01:05;;;;;;;9.67;8.87;;;22.40;83.60;;;;;;5093668;28;20451;-71
2021/09/15 01:03:31;;;;;;;9.57;8.77;;;22.40;83.60;;;;;;5093537;28;20994;-71
2021/09/15 01:05:58;;;;;;;10.50;9.50;;;22.40;83.70;;;;;;5093825;28;20439;-71
2021/09/15 01:08:26;;;;;;;10.20;9.40;;;22.40;83.90;;;;;;5093755;28;20428;-71
2021/09/15 01:10:53;;;;;;;10.60;9.60;;;22.40;84.10;;;;;;5093741;28;20447;-71
2021/09/15 01:13:21;;;;;;;10.00;9.10;;;22.40;84.50;;;;;;5093369;28;20472;-71
2021/09/15 01:15:50;;;;;;;10.23;9.37;;;22.40;84.70;;;;;;5093695;28;20452;-71
2021/09/15 01:18:18;;;;;;;11.00;9.40;;;22.30;84.90;;;;;;5093413;28;20955;-71
2021/09/15 01:20:47;;;;;;;10.03;9.20;;;22.30;85.20;;;;;;5094252;28;20424;-71
2021/09/15 01:23:14;;;;;;;10.87;9.80;;;22.30;85.20;;;;;;5093660;28;20466;-71
2021/09/15 01:25:40;;;;;;;9.20;8.50;;;22.30;85.30;;;;;;5093605;28;20436;-71
2021/09/15 01:28:07;;;;;;;12.77;9.63;;;22.30;85.30;;;;;;5093550;28;20439;-71
2021/09/15 01:30:34;;;;;;;11.63;9.60;;;22.30;85.60;;;;;;5093168;28;20976;-71
2021/09/15 01:33:01;;;;;;;10.90;9.80;;;22.30;85.90;;;;;;5093480;28;20482;-71
2021/09/15 01:35:27;;;;;;;11.10;10.00;;;22.30;86.20;;;;;;5093588;28;20424;-71
2021/09/15 01:37:56;;;;;;;11.10;9.37;;;22.20;86.30;;;;;;5093403;28;20439;-70
2021/09/15 01:40:22;;;;;;;10.80;9.77;;;22.20;86.30;;;;;;5093039;28;20531;-70
2021/09/15 01:42:49;;;;;;;10.17;9.20;;;22.20;86.50;;;;;;5093435;28;20443;-70
2021/09/15 01:45:16;;;;;;;9.90;9.10;;;22.20;86.80;;;;;;5093447;28;20447;-70
2021/09/15 01:47:42;;;;;;;10.03;9.23;;;22.20;86.90;;;;;;5108498;22;20480;-75
2021/09/15 01:50:10;;;;;;;11.53;10.63;;;22.20;87.10;;;;;;5074089;28;20448;-75
2021/09/15 01:52:38;;;;;;;11.37;10.37;;;22.20;87.00;;;;;;5073160;28;20440;-75
2021/09/15 01:55:07;;;;;;;13.70;11.67;;;22.20;86.80;;;;;;5073152;28;20471;-75
2021/09/15 01:57:33;;;;;;;13.00;11.40;;;22.20;86.50;;;;;;5080510;28;20471;-74
2021/09/15 02:00:00;;;;;;;12.77;11.50;;;22.20;86.20;;;;;;5093343;28;20443;-74
2021/09/15 02:02:27;;;;;;;11.23;10.23;;;22.20;86.50;;;;;;5093307;28;20440;-75
2021/09/15 02:04:54;;;;;;;10.70;9.90;;;22.20;86.40;;;;;;5092964;28;20936;-74
2021/09/15 02:07:20;;;;;;;11.40;10.20;;;22.20;86.60;;;;;;5093290;28;20467;-75
2021/09/15 02:09:47;;;;;;;11.50;10.60;;;22.20;86.80;;;;;;5093010;28;20444;-76
2021/09/15 02:12:15;;;;;;;12.17;11.10;;;22.20;87.10;;;;;;5095408;28;20451;-75
2021/09/15 02:14:42;;;;;;;10.97;9.60;;;22.20;87.40;;;;;;5097486;28;20477;-74
2021/09/15 02:17:08;;;;;;;12.50;11.30;;;22.20;87.40;;;;;;5097040;28;20470;-75
2021/09/15 02:19:35;;;;;;;11.83;10.67;;;22.20;87.30;;;;;;5096614;28;20812;-75
2021/09/15 02:22:03;;;;;;;12.70;11.50;;;22.20;87.00;;;;;;5096902;28;20482;-75
2021/09/15 02:24:30;;;;;;;11.80;10.90;;;22.20;86.90;;;;;;5096829;28;20444;-75
2021/09/15 02:26:56;;;;;;;13.43;10.70;;;22.20;87.00;;;;;;5096728;28;20823;-75
2021/09/15 02:29:24;;;;;;;13.30;11.80;;;22.20;87.30;;;;;;5096751;28;20443;-75
2021/09/15 02:31:51;;;;;;;11.43;10.40;;;22.20;87.20;;;;;;5096729;28;20475;-75
2021/09/15 02:34:18;;;;;;;15.90;11.17;;;22.20;87.30;;;;;;5096304;28;20960;-74
2021/09/15 02:36:45;;;;;;;12.53;11.30;;;22.20;87.20;;;;;;5096531;28;20450;-75
2021/09/15 02:39:11;;;;;;;13.13;11.83;;;22.20;86.90;;;;;;5096610;28;20444;-76
2021/09/15 02:41:38;;;;;;;11.50;10.60;;;22.20;86.90;;;;;;5096551;28;20451;-76
2021/09/15 02:44:05;;;;;;;13.90;12.50;;;22.10;87.10;;;;;;5096435;28;20467;-76
2021/09/15 02:46:33;;;;;;;10.97;10.07;;;22.10;87.30;;;;;;5096133;28;20932;-76
2021/09/15 02:49:00;;;;;;;12.43;11.33;;;22.10;87.20;;;;;;5095953;28;20980;-76
2021/09/15 02:51:26;;;;;;;14.07;12.77;;;22.10;87.20;;;;;;5096400;28;20441;-75
2021/09/15 02:53:53;;;;;;;13.77;12.53;;;22.10;87.50;;;;;;5096214;28;20499;-75
2021/09/15 02:56:20;;;;;;;12.47;11.30;;;22.10;87.60;;;;;;5096238;28;20443;-76
2021/09/15 02:58:47;;;;;;;13.13;12.00;;;22.00;87.50;;;;;;5096142;28;20460;-76
2021/09/15 03:01:13;;;;;;;12.73;11.67;;;22.00;87.40;;;;;;5096166;28;20444;-76
2021/09/15 03:03:41;;;;;;;12.13;11.13;;;22.00;87.60;;;;;;5096103;28;20784;-76
2021/09/15 03:06:08;;;;;;;13.20;12.13;;;22.00;87.90;;;;;;5095767;28;20435;-76
2021/09/15 03:08:35;;;;;;;12.23;11.20;;;22.00;88.20;;;;;;5095913;28;20464;-76
2021/09/15 03:11:01;;;;;;;13.03;11.70;;;22.00;88.30;;;;;;5095982;28;20513;-76
2021/09/15 03:13:28;;;;;;;13.87;12.73;;;22.00;88.30;;;;;;5095844;28;20873;-76
2021/09/15 03:15:55;;;;;;;14.30;13.00;;;22.00;88.30;;;;;;5095841;28;20451;-76
2021/09/15 03:18:21;;;;;;;13.40;12.13;;;22.00;88.30;;;;;;5095749;28;20534;-76
2021/09/15 03:20:49;;;;;;;13.23;12.03;;;22.00;88.90;;;;;;5095801;28;20451;-76
2021/09/15 03:23:16;;;;;;;13.33;12.23;;;21.90;89.00;;;;;;5095273;28;20439;-75
2021/09/15 03:25:43;;;;;;;14.23;12.93;;;21.90;88.90;;;;;;5095377;28;20440;-75
2021/09/15 03:28:09;;;;;;;15.80;14.40;;;21.90;89.30;;;;;;5095591;28;20463;-75
2021/09/15 03:30:36;;;;;;;13.10;11.80;;;21.90;89.50;;;;;;5095564;28;20440;-75
2021/09/15 03:33:03;;;;;;;12.20;11.20;;;21.80;89.60;;;;;;5095476;28;20451;-75
2021/09/15 03:35:29;;;;;;;15.37;13.30;;;21.80;89.50;;;;;;5095545;28;20435;-75
2021/09/15 03:37:57;;;;;;;13.00;11.90;;;21.90;89.80;;;;;;5095037;28;20980;-75
2021/09/15 03:40:24;;;;;;;12.97;11.67;;;21.90;90.00;;;;;;5095952;28;20440;-75
2021/09/15 03:42:51;;;;;;;14.80;13.33;;;21.80;90.00;;;;;;5095390;28;20474;-75
2021/09/15 03:45:18;;;;;;;12.07;10.97;;;21.80;90.00;;;;;;5095310;28;20509;-75
2021/09/15 03:47:44;;;;;;;14.73;13.33;;;21.80;90.10;;;;;;5094944;28;20592;-75
2021/09/15 03:50:11;;;;;;;15.10;13.70;;;21.80;90.00;;;;;;5095215;28;20443;-75
2021/09/15 03:52:38;;;;;;;13.20;12.00;;;21.70;90.10;;;;;;5095181;28;20811;-75
2021/09/15 03:55:07;;;;;;;13.50;12.37;;;21.70;90.00;;;;;;5095049;28;20479;-75
2021/09/15 03:57:34;;;;;;;12.60;11.10;;;21.70;90.20;;;;;;5094996;28;20475;-75
2021/09/15 04:00:01;;;;;;;15.23;13.83;;;21.70;90.20;;;;;;5095026;28;20439;-75
2021/09/15 04:02:27;;;;;;;14.63;12.93;;;21.70;90.20;;;;;;5094948;28;20443;-75
2021/09/15 04:04:54;;;;;;;14.27;12.97;;;21.70;90.40;;;;;;5094892;28;20810;-75
2021/09/15 04:07:21;;;;;;;13.50;12.33;;;21.70;90.20;;;;;;5094792;28;20471;-75
2021/09/15 04:09:47;;;;;;;16.53;13.80;;;21.70;90.40;;;;;;5094776;28;20443;-75
2021/09/15 04:12:16;;;;;;;13.40;12.10;;;21.70;90.70;;;;;;5094429;28;20986;-75
2021/09/15 04:14:42;;;;;;;14.83;13.50;;;21.70;90.50;;;;;;5094364;28;20467;-75
2021/09/15 04:17:09;;;;;;;13.87;12.60;;;21.70;90.80;;;;;;5094296;28;20984;-75
2021/09/15 04:19:36;;;;;;;12.47;11.23;;;21.70;91.10;;;;;;5094359;28;20925;-75
2021/09/15 04:22:03;;;;;;;13.27;12.27;;;21.70;90.90;;;;;;5094587;28;20452;-75
2021/09/15 04:31:10;;;;;;;13.30;12.20;;;21.70;90.70;;;;;;5094590;28;20428;-74
2021/09/15 04:32:58;;;;;;;14.17;12.87;;;21.70;91.20;;;;;;5094296;28;20435;-75
2021/09/15 04:35:25;;;;;;;15.63;14.13;;;21.70;91.20;;;;;;5093372;28;20475;-75
2021/09/15 04:37:52;;;;;;;14.00;12.70;;;21.70;91.40;;;;;;5094248;28;20471;-74
2021/09/15 04:40:19;;;;;;;16.03;14.43;;;21.70;91.50;;;;;;5093910;28;20440;-75
2021/09/15 04:42:47;;;;;;;14.00;12.70;;;21.70;91.70;;;;;;5094240;28;20450;-75
2021/09/15 04:45:14;;;;;;;13.97;12.77;;;21.80;91.80;;;;;;5094139;28;20489;-75
2021/09/15 04:47:40;;;;;;;13.20;12.00;;;21.80;91.70;;;;;;5093720;28;20959;-75
2021/09/15 04:50:08;;;;;;;12.80;11.73;;;21.80;91.70;;;;;;5094081;28;20444;-75
2021/09/15 04:52:35;;;;;;;13.47;12.27;;;21.80;91.40;;;;;;5094066;28;20436;-74
2021/09/15 04:55:02;;;;;;;16.20;13.63;;;21.80;91.40;;;;;;5093605;28;20475;-75
2021/09/15 04:57:29;;;;;;;15.30;13.87;;;21.80;91.40;;;;;;5093904;28;20470;-75
2021/09/15 04:59:57;;;;;;;15.37;13.93;;;21.80;91.60;;;;;;5093949;28;20451;-75
2021/09/15 05:02:23;;;;;;;15.97;14.40;;;21.80;91.70;;;;;;5093945;28;20438;-75
2021/09/15 05:04:50;;;;;;;14.13;12.70;;;21.80;91.70;;;;;;5093840;28;20439;-75
2021/09/15 05:07:17;;;;;;;14.00;12.70;;;21.80;91.70;;;;;;5093799;28;20467;-75
2021/09/15 05:09:44;;;;;;;14.07;12.83;;;21.80;91.70;;;;;;5093803;28;20440;-74
2021/09/15 05:12:10;;;;;;;15.53;13.07;;;21.80;91.70;;;;;;5093797;28;20451;-75
2021/09/15 05:14:37;;;;;;;13.87;12.67;;;21.80;92.00;;;;;;5094483;28;20865;-74
2021/09/15 05:17:05;;;;;;;14.37;12.87;;;21.80;91.70;;;;;;5093649;28;20464;-74
2021/09/15 05:19:32;;;;;;;14.37;12.97;;;21.70;91.70;;;;;;5093698;28;20448;-74
2021/09/15 05:21:58;;;;;;;13.47;12.13;;;21.70;91.80;;;;;;5093368;28;20439;-74
2021/09/15 05:24:25;;;;;;;13.93;12.73;;;21.70;91.60;;;;;;5093673;28;20428;-75
2021/09/15 05:26:52;;;;;;;11.50;10.50;;;21.60;91.90;;;;;;5093498;28;20443;-75
2021/09/15 05:29:18;;;;;;;14.73;12.90;;;21.50;91.90;;;;;;5093597;28;20853;-75
2021/09/15 05:31:45;;;;;;;11.03;9.93;;;21.50;91.80;;;;;;5093614;28;20444;-75
2021/09/15 05:34:15;;;;;;;11.93;10.73;;;21.50;91.90;;;;;;5093489;28;20487;-75
2021/09/15 05:36:41;;;;;;;11.20;10.30;;;21.40;92.00;;;;;;5093563;28;20427;-75
2021/09/15 05:39:08;;;;;;;11.63;10.57;;;21.40;92.20;;;;;;5093548;28;20432;-75
2021/09/15 05:41:35;;;;;;;13.70;10.73;;;21.30;92.20;;;;;;5093473;28;20436;-75
2021/09/15 05:44:02;;;;;;;13.20;10.20;;;21.30;92.40;;;;;;5093165;28;20881;-75
2021/09/15 05:46:29;;;;;;;11.30;10.20;;;21.30;92.20;;;;;;5096208;28;20465;-75
2021/09/15 05:48:55;;;;;;;13.30;11.97;;;21.20;92.80;;;;;;5097635;28;20528;-75
2021/09/15 05:51:24;;;;;;;12.73;11.43;;;21.20;93.00;;;;;;5097500;28;20446;-74
2021/09/15 05:53:50;;;;;;;12.70;11.60;;;21.10;93.20;;;;;;5097395;28;20436;-74
2021/09/15 05:56:17;;;;;;;12.80;11.60;;;21.10;93.20;;;;;;5097391;28;20452;-74
2021/09/15 05:58:44;;;;;;;13.63;12.30;;;21.10;93.50;;;;;;5097309;28;20470;-75
2021/09/15 06:01:10;;;;;;;13.03;11.80;;;21.10;93.60;;;;;;5097316;28;20443;-74
2021/09/15 06:03:37;;;;;;;13.50;12.13;;;21.10;93.70;;;;;;5097266;28;20444;-73
2021/09/15 06:06:04;;;;;;;13.23;11.83;;;21.10;93.70;;;;;;5097252;28;20431;-75
2021/09/15 06:08:32;;;;;;;13.70;12.40;;;21.20;93.80;;;;;;5097102;28;20460;-74
2021/09/15 06:10:59;;;;;;;14.87;12.10;;;21.20;93.70;;;;;;5097189;28;20428;-73
2021/09/15 06:13:25;;;;;;;14.00;12.70;;;21.20;93.70;;;;;;5097087;28;20444;-73
2021/09/15 06:15:52;;;;;;;13.27;11.97;;;21.20;93.80;;;;;;5096966;28;20471;-74
2021/09/15 06:18:19;;;;;;;13.43;12.10;;;21.20;93.80;;;;;;5096909;28;20466;-73
2021/09/15 06:20:45;;;;;;;14.13;12.83;;;21.30;93.90;;;;;;5096968;28;20841;-74
2021/09/15 06:23:12;;;;;;;13.33;12.07;;;21.30;93.90;;;;;;5096905;28;20455;-74
2021/09/15 06:25:42;;;;;;;12.87;11.63;;;21.30;93.90;;;;;;5096572;28;20901;-74
2021/09/15 06:28:09;;;;;;;13.53;12.20;;;21.30;93.90;;;;;;5096790;28;20560;-74
2021/09/15 06:30:36;;;;;;;12.37;11.10;;;21.40;93.90;;;;;;5096766;28;20439;-74
2021/09/15 06:33:03;;;;;;;10.67;9.60;;;21.40;93.80;;;;;;5096714;28;20443;-73
2021/09/15 06:35:30;;;;;;;11.37;10.27;;;21.40;93.60;;;;;;5096295;28;20479;-74
2021/09/15 06:37:57;;;;;;;10.40;9.40;;;21.50;93.40;;;;;;5096540;28;20470;-74
2021/09/15 06:40:24;;;;;;;13.77;11.80;;;21.50;93.30;;;;;;5096318;28;20913;-74
2021/09/15 06:42:52;;;;;;;10.77;9.67;;;21.60;93.20;;;;;;5096503;28;20440;-73
2021/09/15 06:45:18;;;;;;;12.33;9.77;;;21.70;93.10;;;;;;5096500;28;20806;-73
2021/09/15 06:47:46;;;;;;;10.20;9.30;;;21.70;92.80;;;;;;5096182;28;20471;-74
2021/09/15 06:50:15;;;;;;;11.70;9.43;;;21.80;92.80;;;;;;5096422;28;20523;-74
2021/09/15 06:52:42;;;;;;;11.53;8.23;;;21.80;92.50;;;;;;5096358;28;20451;-74
2021/09/15 06:55:09;;;;;;;10.53;9.43;;;21.90;92.50;;;;;;5095897;28;20989;-74
2021/09/15 06:57:36;;;;;;;9.43;8.53;;;21.80;92.40;;;;;;5095017;28;20964;-74
2021/09/15 07:00:06;;;;;;;10.30;8.60;;;21.80;92.30;;;;;;5096219;28;20801;-74
2021/09/15 07:02:32;;;;;;;8.03;7.20;;;21.90;92.10;;;;;;5095909;28;20803;-74
2021/09/15 07:04:59;;;;;;;8.10;7.40;;;21.90;91.90;;;;;;5096159;28;20431;-74
2021/09/15 07:07:26;;;;;;;9.40;8.07;;;21.90;91.90;;;;;;5096049;28;20463;-74
2021/09/15 07:09:53;;;;;;;10.97;8.00;;;21.80;91.90;;;;;;5096072;28;20439;-74
2021/09/15 07:12:19;;;;;;;9.87;7.13;;;21.70;91.80;;;;;;5096580;28;20420;-75
2021/09/15 07:14:46;;;;;;;9.90;9.00;;;21.70;92.20;;;;;;5095883;28;20464;-74
2021/09/15 07:17:14;;;;;;;10.00;8.47;;;21.70;92.20;;;;;;5095579;28;20968;-75
2021/09/15 07:19:41;;;;;;;8.60;7.90;;;21.70;92.50;;;;;;5095961;28;20451;-74
2021/09/15 07:22:08;;;;;;;9.50;7.67;;;21.70;92.40;;;;;;5095498;28;20786;-74
2021/09/15 07:24:34;;;;;;;9.07;8.27;;;21.70;92.50;;;;;;5095752;28;20442;-75
2021/09/15 07:27:01;;;;;;;9.53;8.03;;;21.80;92.60;;;;;;5095912;28;20931;-74
2021/09/15 07:29:28;;;;;;;9.70;8.70;;;21.90;92.60;;;;;;5095628;28;20424;-76
2021/09/15 07:31:54;;;;;;;9.60;7.90;;;22.00;92.60;;;;;;5095597;28;20439;-76
2021/09/15 07:34:22;;;;;;;9.23;8.00;;;22.10;92.50;;;;;;5095443;28;20501;-76
2021/09/15 07:36:49;;;;;;;13.70;8.03;;;22.20;92.30;;;;;;5095138;28;20428;-76
2021/09/15 07:39:16;;;;;;;12.07;6.70;;;22.30;91.80;;;;;;5095390;28;20455;-76
2021/09/15 07:41:42;;;;;;;14.77;6.90;;;22.40;91.40;;;;;;5095431;28;20440;-75
2021/09/15 07:44:09;;;;;;;17.53;7.67;;;22.50;91.20;;;;;;5095364;28;20439;-76
2021/09/15 07:46:36;;;;;;;6.60;6.00;;;22.60;91.20;;;;;;5095408;28;20444;-76
2021/09/15 07:49:03;;;;;;;10.87;5.80;;;22.70;90.90;;;;;;5094821;28;20467;-76
2021/09/15 07:51:31;;;;;;;9.60;6.47;;;22.70;90.80;;;;;;5095242;28;20424;-76
2021/09/15 07:53:57;;;;;;;7.40;6.70;;;22.80;90.80;;;;;;5094826;28;20819;-76
2021/09/15 07:56:24;;;;;;;8.70;6.40;;;22.80;90.80;;;;;;5094760;28;20471;-76
2021/09/15 07:58:51;;;;;;;10.10;6.10;;;22.90;90.70;;;;;;5095026;28;20463;-76
2021/09/15 08:01:21;;;;;;;7.67;5.93;;;22.90;90.70;;;;;;5095034;28;20436;-76
2021/09/15 08:03:47;;;;;;;16.00;7.20;;;22.90;90.70;;;;;;5095252;28;20463;-75
2021/09/15 08:06:14;;;;;;;9.30;5.70;;;22.90;90.80;;;;;;5094987;28;20424;-76
2021/09/15 08:08:42;;;;;;;9.93;5.30;;;22.90;90.60;;;;;;5094827;28;20459;-75
2021/09/15 08:11:09;;;;;;;5.97;5.37;;;22.80;90.70;;;;;;5094886;28;20478;-75
2021/09/15 08:13:36;;;;;;;6.37;5.33;;;22.80;91.00;;;;;;5094505;28;20435;-75
2021/09/15 08:16:03;;;;;;;6.53;5.17;;;22.70;91.20;;;;;;5094447;28;20968;-75
2021/09/15 08:18:29;;;;;;;6.40;5.20;;;22.50;91.30;;;;;;5094337;28;20832;-75
2021/09/15 08:20:56;;;;;;;8.00;5.10;;;22.50;91.50;;;;;;5094718;28;20819;-75
2021/09/15 08:23:23;;;;;;;8.10;5.60;;;22.40;91.70;;;;;;5094664;28;20447;-75
2021/09/15 08:25:51;;;;;;;6.43;5.57;;;22.30;91.90;;;;;;5094781;28;20427;-75
2021/09/15 08:28:18;;;;;;;4.90;4.50;;;22.20;92.00;;;;;;5094557;28;20471;-76
2021/09/15 08:30:44;;;;;;;5.23;4.73;;;22.20;92.30;;;;;;5094554;28;20443;-76
2021/09/15 08:33:11;;;;;;;6.33;5.23;;;22.10;92.20;;;;;;5094499;28;20428;-76
2021/09/15 08:35:38;;;;;;;5.57;5.00;;;22.10;92.30;;;;;;5089355;22;20496;-72
2021/09/15 08:38:04;;;;;;;7.70;5.90;;;22.10;92.40;;;;;;5053810;28;20953;-72
2021/09/15 08:40:31;;;;;;;6.63;5.13;;;22.10;92.40;;;;;;5054053;28;20448;-71
2021/09/15 08:43:00;;;;;;;6.80;5.50;;;22.00;92.50;;;;;;5054064;28;20421;-72
2021/09/15 08:45:27;;;;;;;6.50;5.77;;;22.00;92.50;;;;;;5067406;28;20464;-72
2021/09/15 08:47:54;;;;;;;7.70;7.00;;;21.90;92.70;;;;;;5073941;28;20426;-72
2021/09/15 08:50:21;;;;;;;8.50;6.40;;;21.80;92.90;;;;;;5073893;28;20572;-72
2021/09/15 08:52:48;;;;;;;7.70;6.83;;;21.80;93.20;;;;;;5073842;28;20539;-72
2021/09/15 08:55:15;;;;;;;6.60;6.00;;;21.80;93.50;;;;;;5073710;28;20484;-72
2021/09/15 08:57:42;;;;;;;11.77;7.87;;;21.80;93.40;;;;;;5073546;28;20484;-72
2021/09/15 09:00:12;;;;;;;8.87;7.60;;;21.80;93.50;;;;;;5073478;28;20910;-72
2021/09/15 09:02:41;;;;;;;7.53;6.93;;;21.80;93.50;;;;;;5073778;28;20429;-72
2021/09/15 09:05:09;;;;;;;8.10;7.40;;;21.90;93.60;;;;;;5073685;28;20823;-72
2021/09/15 09:07:36;;;;;;;10.20;8.30;;;22.00;93.50;;;;;;5073334;28;20956;-72
2021/09/15 09:10:07;;;;;;;10.73;8.70;;;22.00;93.60;;;;;;5073306;28;20445;-72
2021/09/15 09:12:35;;;;;;;8.80;8.00;;;22.00;93.40;;;;;;5073602;28;20429;-72
2021/09/15 09:15:18;;;;;;;11.03;8.80;;;22.00;93.40;;;;;;5073438;28;20910;-72
2021/09/15 09:17:46;;;;;;;11.90;10.23;;;22.00;93.20;;;;;;5074076;28;20429;-72
2021/09/15 09:20:15;;;;;;;12.80;10.00;;;22.00;93.60;;;;;;5073099;28;20433;-72
2021/09/15 09:23:09;;;;;;;12.57;10.53;;;21.90;93.70;;;;;;5073479;28;20436;-71
2021/09/15 09:25:39;;;;;;;15.83;11.30;;;21.90;94.30;;;;;;5073099;28;20970;-71
2021/09/15 09:28:20;;;;;;;12.20;11.00;;;21.80;94.20;;;;;;5073104;28;20917;-71
2021/09/15 09:30:51;;;;;;;12.07;10.77;;;21.90;94.30;;;;;;5073431;28;20432;-71
2021/09/15 09:33:19;;;;;;;13.30;10.83;;;21.90;94.50;;;;;;5073028;28;20902;-71
2021/09/15 09:35:47;;;;;;;12.73;11.57;;;21.90;94.70;;;;;;5072805;28;20489;-71
2021/09/15 09:38:33;;;;;;;11.50;10.47;;;22.00;94.90;;;;;;5073228;28;20790;-71
2021/09/15 09:41:10;;;;;;;12.73;10.80;;;22.00;94.90;;;;;;5072910;28;20800;-71
2021/09/15 09:43:38;;;;;;;11.67;10.57;;;21.90;94.90;;;;;;5073305;28;20439;-71
2021/09/15 09:46:08;;;;;;;13.20;11.20;;;21.90;95.20;;;;;;5072839;28;20992;-71
2021/09/15 09:48:40;;;;;;;12.27;11.07;;;21.90;95.40;;;;;;5073188;28;20479;-71
2021/09/15 09:51:23;;;;;;;12.27;11.07;;;22.00;95.60;;;;;;5073265;28;20421;-71
2021/09/15 09:53:51;;;;;;;13.23;12.03;;;22.10;95.20;;;;;;5073053;28;20440;-71
2021/09/15 09:56:18;;;;;;;12.77;11.40;;;22.20;95.20;;;;;;5073147;28;20464;-71
2021/09/15 09:58:46;;;;;;;13.17;11.80;;;22.30;94.60;;;;;;5073123;28;20449;-71
2021/09/15 10:01:20;;;;;;;13.67;11.70;;;22.30;94.50;;;;;;5073095;28;20460;-71
2021/09/15 10:03:47;;;;;;;12.63;11.43;;;22.50;94.60;;;;;;5073100;28;20432;-71
2021/09/15 10:06:15;;;;;;;11.80;10.80;;;22.60;94.40;;;;;;5072994;28;20484;-71
2021/09/15 10:08:45;;;;;;;10.33;9.40;;;22.60;93.90;;;;;;5073036;28;20867;-71
2021/09/15 10:11:12;;;;;;;10.67;9.77;;;22.60;93.70;;;;;;5073095;28;20441;-71
2021/09/15 10:13:39;;;;;;;9.90;9.10;;;22.70;93.50;;;;;;5072797;28;20436;-71
2021/09/15 10:16:07;;;;;;;10.60;9.70;;;22.60;93.40;;;;;;5073097;28;20484;-71
2021/09/15 10:18:35;;;;;;;11.60;10.20;;;22.60;93.40;;;;;;5072698;28;20445;-71
2021/09/15 10:21:06;;;;;;;10.63;9.73;;;22.50;93.30;;;;;;5073202;28;20445;-71
2021/09/15 10:23:38;;;;;;;12.77;11.60;;;22.40;93.60;;;;;;5073022;28;20443;-71
2021/09/15 10:26:28;;;;;;;12.30;11.30;;;22.40;93.90;;;;;;5072573;28;20984;-71
2021/09/15 10:29:29;;;;;;;14.43;12.97;;;22.40;94.10;;;;;;5072998;28;20449;-71
2021/09/15 10:32:05;;;;;;;14.27;12.87;;;22.40;94.30;;;;;;5073136;28;20429;-71
2021/09/15 10:34:53;;;;;;;15.80;14.30;;;22.40;94.50;;;;;;5076292;28;20482;-71
2021/09/15 10:37:53;;;;;;;16.80;15.10;;;22.50;94.80;;;;;;5076295;28;20530;-71
2021/09/15 10:40:41;;;;;;;17.53;15.73;;;22.60;94.50;;;;;;5076268;28;20478;-71
2021/09/15 10:43:42;;;;;;;18.30;16.40;;;22.60;94.50;;;;;;5076298;28;20436;-71
2021/09/15 10:46:23;;;;;;;21.57;19.50;;;22.60;93.80;;;;;;5033210;28;20472;-71
2021/09/15 10:49:32;;;;;;;22.87;20.77;;;22.40;93.70;;;;;;5075946;28;20790;-71
2021/09/15 10:52:25;;;;;;;22.17;20.07;;;22.30;94.30;;;;;;5075052;28;20441;-71
2021/09/15 10:54:55;;;;;;;21.50;19.30;;;22.40;94.60;;;;;;5075680;28;20996;-71
2021/09/15 10:57:28;;;;;;;21.50;19.03;;;22.40;94.30;;;;;;5075711;28;20951;-71
2021/09/15 10:59:56;;;;;;;19.73;17.83;;;22.50;94.50;;;;;;5075683;28;20430;-71
2021/09/15 11:02:25;;;;;;;22.33;19.27;;;22.60;94.10;;;;;;5076014;28;20443;-71
2021/09/15 11:04:52;;;;;;;23.33;18.20;;;22.80;93.90;;;;;;5076062;28;20468;-71
2021/09/15 11:07:53;;;;;;;17.23;15.63;;;22.90;93.80;;;;;;5076071;28;20426;-71
2021/09/15 11:10:39;;;;;;;18.33;16.10;;;23.10;93.20;;;;;;5072611;28;20465;-71
2021/09/15 11:13:07;;;;;;;16.87;15.30;;;23.30;92.70;;;;;;5076158;28;20420;-71
2021/09/15 11:15:36;;;;;;;19.13;16.33;;;23.30;92.10;;;;;;5075394;28;20972;-72
2021/09/15 11:18:03;;;;;;;18.53;16.70;;;23.30;91.80;;;;;;5075841;28;20444;-71
2021/09/15 11:20:31;;;;;;;17.57;15.87;;;23.20;92.10;;;;;;5075496;28;20448;-71
2021/09/15 11:23:03;;;;;;;15.97;14.50;;;23.20;92.40;;;;;;5075568;28;20445;-71
2021/09/15 11:25:30;;;;;;;15.10;13.70;;;23.20;92.20;;;;;;5075577;28;20553;-71
2021/09/15 11:28:08;;;;;;;16.17;14.70;;;23.20;92.30;;;;;;5075252;28;20436;-71
2021/09/15 11:30:36;;;;;;;17.07;15.10;;;23.20;92.50;;;;;;5075447;28;20432;-71
2021/09/15 11:33:03;;;;;;;18.13;16.20;;;23.20;92.40;;;;;;5075423;28;20429;-71
2021/09/15 11:35:34;;;;;;;19.33;17.53;;;23.30;92.20;;;;;;5075130;28;20472;-72
2021/09/15 11:38:01;;;;;;;17.90;16.30;;;23.30;91.30;;;;;;5075087;28;20890;-72
2021/09/15 11:40:29;;;;;;;17.93;16.30;;;23.30;91.10;;;;;;5075337;28;20500;-72
2021/09/15 11:42:56;;;;;;;19.83;17.93;;;23.40;91.40;;;;;;5074963;28;20457;-72
2021/09/15 11:45:25;;;;;;;20.47;18.70;;;23.40;91.50;;;;;;5075115;28;20826;-72
2021/09/15 11:47:54;;;;;;;21.00;19.00;;;23.50;91.40;;;;;;5075585;28;20461;-72
2021/09/15 11:50:22;;;;;;;22.73;20.33;;;23.60;91.00;;;;;;5075464;28;20436;-72
2021/09/15 11:52:52;;;;;;;20.30;18.40;;;23.80;90.70;;;;;;5075111;28;20448;-72
2021/09/15 11:55:20;;;;;;;21.37;19.07;;;23.80;90.00;;;;;;5075341;28;20472;-72
2021/09/15 11:57:48;;;;;;;23.47;17.60;;;23.90;89.70;;;;;;5074494;28;20993;-72
2021/09/15 12:00:16;;;;;;;18.00;16.20;;;24.10;88.50;;;;;;5074817;28;20440;-72
2021/09/15 12:02:46;;;;;;;17.00;15.30;;;24.50;87.80;;;;;;5074523;28;20887;-72
2021/09/15 12:05:14;;;;;;;16.40;14.70;;;24.60;85.70;;;;;;5074676;28;20479;-72
2021/09/15 12:07:43;;;;;;;16.03;14.40;;;24.70;86.20;;;;;;5074899;28;20445;-72
2021/09/15 12:10:11;;;;;;;14.10;12.80;;;25.00;85.50;;;;;;5074720;28;20429;-72
2021/09/15 12:12:38;;;;;;;13.60;12.30;;;25.20;83.60;;;;;;5074933;28;20448;-72
2021/09/15 12:15:07;;;;;;;14.50;13.10;;;25.40;80.80;;;;;;5074150;28;20992;-72
2021/09/15 12:17:34;;;;;;;13.73;12.43;;;25.40;79.70;;;;;;5074465;28;20535;-72
2021/09/15 12:20:02;;;;;;;12.27;11.00;;;25.50;81.10;;;;;;5074418;28;20441;-72
2021/09/15 12:22:31;;;;;;;13.50;12.07;;;25.50;80.20;;;;;;5074083;28;20956;-72
2021/09/15 12:25:00;;;;;;;14.97;13.27;;;25.50;79.70;;;;;;5073969;28;20974;-72
2021/09/15 12:27:28;;;;;;;14.83;12.77;;;25.50;80.20;;;;;;5073936;28;20934;-72
2021/09/15 12:29:59;;;;;;;13.63;12.43;;;25.40;80.50;;;;;;5074226;28;20453;-72
2021/09/15 12:32:30;;;;;;;13.20;12.00;;;25.30;81.10;;;;;;5074156;28;20456;-72
2021/09/15 12:34:57;;;;;;;15.37;14.00;;;25.30;81.60;;;;;;5073913;28;20822;-72
2021/09/15 12:37:25;;;;;;;15.17;13.87;;;25.30;81.30;;;;;;5073699;28;21000;-72
2021/09/15 12:39:55;;;;;;;14.77;13.40;;;25.30;80.90;;;;;;5074320;28;20445;-72
2021/09/15 12:42:23;;;;;;;14.53;13.00;;;25.50;79.80;;;;;;5073755;28;20484;-72
2021/09/15 12:45:00;;;;;;;14.53;13.10;;;25.90;79.10;;;;;;5073969;28;20468;-72
2021/09/15 12:47:38;;;;;;;13.73;12.53;;;26.10;78.50;;;;;;5074008;28;20486;-72